Wednesday, January 17, 2018, 11:25 AM GMT
Back to Local

CZBF, Bathurst Airport Aviation Weather Reporting Station

Location: , , Canada Lat: 47.633
Local Time: 11:25 AM GMT (11:25 GMT) Lon: -65.75
Time Zone: GMT Elev: 193 ft

Show me the last for .
Show Decoded

2018-01-17 11:00 METAR CZBF 171100Z 00000KT 10SM OVC040 M16/M17 A3039 RMK SC8 SLP300 =
2018-01-17 10:00 METAR CZBF 171000Z VRB02KT 7SM FEW020 BKN200 M15/M17 A3038 RMK SC1CS5 SLP296 =
2018-01-17 09:00 METAR CZBF 170900Z 20002KT 6SM -SN OVC030 M15/M17 A3039 RMK SC8 SLP299 =
2018-01-17 08:00 METAR CZBF 170800Z VRB02KT 6SM -SN OVC015 M16/M18 A3040 RMK SC8 SLP302 =
2018-01-17 07:00 METAR CZBF 170700Z VRB02KT 5SM -SN OVC015 M16/M18 A3040 RMK SC8 SLP302 =
2018-01-17 06:00 METAR CZBF 170600Z 22002KT 6SM -SN BKN020 M17/M19 A3039 RMK SC6 SLP299 =
2018-01-17 05:00 METAR CZBF 170500Z 00000KT 6SM -SN OVC020 M15/M17 A3040 RMK SC8 SLP302 =
2018-01-17 04:31 METAR CZBF 170431Z 19002KT 7SM -SN OVC020 M16/M18 A3041 RMK SC8 SLP305 =
2018-01-17 04:00 METAR CZBF 170400Z 00000KT 15SM SKC M16/M18 A3042 RMK SLP310 =
2018-01-17 03:00 METAR CZBF 170300Z 00000KT 10SM FEW020 M16/M17 A3042 RMK SC1 SLP308 =
2018-01-17 02:00 METAR CZBF 170200Z 26002KT 7SM SCT030 M13/M15 A3043 RMK SC4 SLP312 =
2018-01-17 01:00 METAR CZBF 170100Z 20002KT 3SM -SN OVC040 M12/M14 A3044 RMK SC8 SLP314 =
2018-01-17 00:00 METAR CZBF 170000Z 00000KT 3SM -SN OVC050 M12/M14 A3044 RMK SC8 SLP315 =
2018-01-16 23:00 METAR CZBF 162300Z 21002KT 6SM -SN OVC100 M12/M14 A3044 RMK AS8 SLP315 =
2018-01-16 22:00 METAR CZBF 162200Z 00000KT 6SM -SN OVC080 M12/M14 A3042 RMK AS8 SLP309 =
2018-01-16 21:00 METAR CZBF 162100Z VRB02KT 8SM -SN BKN015 OVC120 M12/M14 A3043 RMK SC6AS2 SLP311
                 =
2018-01-16 20:00 METAR CZBF 162000Z VRB02KT 10SM -SN OVC120 M12/M14 A3043 RMK AS8 SLP311 =
2018-01-16 19:00 METAR CZBF 161900Z VRB03KT 15SM -SN SCT030 BKN100 OVC120 M12/M15 A3042 RMK
                 SC3AC2AS3 SLP310 =
2018-01-16 18:00 METAR CZBF 161800Z 33003KT 300V050 12SM -SN FEW030 OVC100 M12/M15 A3042 RMK
                 SC1AS7 SLP310 =
2018-01-16 17:00 METAR CZBF 161700Z 35005KT 300V040 15SM FEW030 OVC080 M12/M15 A3045 RMK SC1AS8
                 SC TR SLP317 =
2018-01-16 16:00 METAR CZBF 161600Z 34005KT 320V030 10SM -SN SCT008 OVC020 M13/M16 A3048 RMK
                 SF3SC5 SLP329 =
2018-01-16 15:00 METAR CZBF 161500Z 33005KT 310V040 5SM -SG OVC008 M13/M16 A3051 RMK ST8 SLP339 =
2018-01-16 14:00 METAR CZBF 161400Z 33004KT 280V360 5SM -SG OVC008 M14/M16 A3053 RMK ST8 SLP344 =
2018-01-16 13:00 METAR CZBF 161300Z 32003KT 270V010 8SM -SG OVC010 M14/M16 A3051 RMK ST8 SLP339 =
2018-01-16 12:00 METAR CZBF 161200Z 35005KT 300V020 15SM -SN OVC015 M14/M16 A3051 RMK SC8 SLP339
                 =

Support USWX by starting your Amazon purchase here.